Time;durP1;ratioP1;P1;durP2;ratioP2;P2;SDS_P1;SDS_P2;PMS_P1;PMS_P2;Temp;Humidity;BMP_temperature;BMP_pressure;BME280_temperature;BME280_humidity;BME280_pressure;Samples;Min_cycle;Max_cycle;Signal;HPM_P1;HPM_P2
2023/04/30 00:00:12;;;;;;;6.90;5.07;;;;;;;10.31;100.00;98956.66;4939527;28;20239;-65
2023/04/30 00:02:39;;;;;;;6.20;4.73;;;;;;;10.38;100.00;98955.13;4943102;28;20236;-65
2023/04/30 00:05:06;;;;;;;8.13;5.30;;;;;;;10.37;100.00;98957.88;4940665;28;20230;-65
2023/04/30 00:07:32;;;;;;;7.50;4.87;;;;;;;10.36;100.00;98948.38;4941187;28;20237;-66
2023/04/30 00:09:59;;;;;;;9.87;4.77;;;;;;;10.30;100.00;98955.00;4942508;28;20244;-66
2023/04/30 00:12:26;;;;;;;7.50;5.23;;;;;;;10.29;100.00;98961.19;4939348;28;20236;-66
2023/04/30 00:14:55;;;;;;;7.93;5.10;;;;;;;10.27;100.00;98963.13;4942332;28;20242;-66
2023/04/30 00:17:26;;;;;;;9.23;5.00;;;;;;;10.29;100.00;98979.44;4939575;28;20276;-65
2023/04/30 00:19:53;;;;;;;5.97;4.80;;;;;;;10.31;100.00;98974.91;4943295;28;20237;-65
2023/04/30 00:22:25;;;;;;;8.80;5.00;;;;;;;10.28;100.00;98972.59;4939428;28;21067;-65
2023/04/30 00:24:52;;;;;;;7.37;4.73;;;;;;;10.26;100.00;98975.31;4941376;28;20225;-65
2023/04/30 00:27:43;;;;;;;5.67;4.30;;;;;;;10.24;100.00;98968.63;4939931;28;20243;-65
2023/04/30 00:30:11;;;;;;;5.90;4.57;;;;;;;10.19;100.00;98956.81;4954037;28;20229;-66
2023/04/30 00:32:39;;;;;;;5.97;4.30;;;;;;;10.17;100.00;98965.72;4938141;28;20264;-66
2023/04/30 00:35:06;;;;;;;9.73;4.63;;;;;;;10.13;100.00;98961.75;4920793;28;20241;-66
2023/04/30 00:37:33;;;;;;;6.10;4.67;;;;;;;10.10;100.00;98956.81;4938860;28;20244;-66
2023/04/30 00:40:00;;;;;;;6.40;4.53;;;;;;;10.02;100.00;98958.34;4942682;28;20241;-65
2023/04/30 00:42:26;;;;;;;8.17;4.43;;;;;;;10.02;100.00;98958.34;4935542;28;20633;-66
2023/04/30 00:44:53;;;;;;;6.17;4.73;;;;;;;9.94;100.00;98949.56;4915850;28;20609;-66
2023/04/30 00:47:25;;;;;;;6.00;4.30;;;;;;;9.89;100.00;98942.16;4921503;28;20288;-66
2023/04/30 00:49:53;;;;;;;8.13;4.43;;;;;;;9.84;100.00;98933.94;4923198;28;20229;-65
2023/04/30 00:52:27;;;;;;;6.20;4.50;;;;;;;9.73;100.00;98940.94;4939461;28;23612;-66
2023/04/30 00:54:54;;;;;;;5.67;4.03;;;;;;;9.64;100.00;98935.72;4940579;28;20232;-65
2023/04/30 00:57:26;;;;;;;8.67;4.17;;;;;;;9.55;100.00;98929.56;4933663;28;20239;-65
2023/04/30 00:59:54;;;;;;;6.43;3.90;;;;;;;9.49;100.00;98936.13;4941546;28;20255;-65
2023/04/30 01:02:25;;;;;;;7.10;4.17;;;;;;;9.42;100.00;98935.03;4921284;28;20496;-65
2023/04/30 01:04:54;;;;;;;6.17;4.53;;;;;;;9.37;100.00;98924.19;4941398;28;20236;-65
2023/04/30 01:07:27;;;;;;;6.13;4.13;;;;;;;9.32;100.00;98923.78;4920013;28;20916;-65
2023/04/30 01:09:54;;;;;;;5.73;4.50;;;;;;;9.29;100.00;98920.47;4941432;28;20241;-65
2023/04/30 01:12:33;;;;;;;6.97;4.73;;;;;;;9.30;100.00;98924.75;4938520;28;20330;-65
2023/04/30 01:15:07;;;;;;;6.23;4.50;;;;;;;9.25;100.00;98918.28;4941877;28;20696;-65
2023/04/30 01:17:38;;;;;;;5.37;3.90;;;;;;;9.28;100.00;98913.63;4921594;29;20240;-65
2023/04/30 01:20:10;;;;;;;6.10;4.67;;;;;;;9.38;100.00;98910.22;4923790;29;20248;-65
2023/04/30 01:22:46;;;;;;;7.23;4.57;;;;;;;9.39;100.00;98906.66;4937556;28;20247;-65
2023/04/30 01:25:25;;;;;;;7.00;4.10;;;;;;;9.44;100.00;98907.06;4925664;28;20246;-65
2023/04/30 01:28:05;;;;;;;7.73;4.43;;;;;;;9.45;100.00;98904.31;4900732;28;20248;-65
2023/04/30 01:30:33;;;;;;;7.93;4.07;;;;;;;9.49;100.00;98898.81;4921715;28;20290;-65
2023/04/30 01:33:00;;;;;;;6.13;3.67;;;;;;;9.54;100.00;98894.03;4924504;29;20652;-65
2023/04/30 01:35:41;;;;;;;7.47;4.10;;;;;;;9.52;100.00;98903.75;4935348;28;20252;-65
2023/04/30 01:38:17;;;;;;;7.03;4.23;;;;;;;9.51;100.00;98897.75;4958877;28;20236;-65
2023/04/30 01:40:50;;;;;;;6.50;4.13;;;;;;;9.54;100.00;98907.84;4936391;28;20249;-65
2023/04/30 01:43:27;;;;;;;6.03;4.33;;;;;;;9.54;100.00;98907.84;4939769;28;20231;-65
2023/04/30 01:46:04;;;;;;;11.40;4.53;;;;;;;9.56;100.00;98905.94;4916878;29;20235;-65
2023/04/30 01:48:40;;;;;;;8.03;5.87;;;;;;;9.56;100.00;98903.34;4943382;28;20241;-65
2023/04/30 01:51:15;;;;;;;7.73;5.30;;;;;;;9.65;100.00;98903.47;4925256;28;20785;-65
2023/04/30 01:53:46;;;;;;;5.60;3.40;;;;;;;9.68;100.00;98913.63;4943897;28;20348;-66
2023/04/30 01:56:18;;;;;;;11.57;5.30;;;;;;;9.78;100.00;98913.63;4955998;28;20279;-66
2023/04/30 01:58:49;;;;;;;7.57;5.03;;;;;;;9.86;100.00;98911.16;4848754;28;20256;-65
2023/04/30 02:01:29;;;;;;;7.97;5.37;;;;;;;9.99;100.00;98905.63;4918107;28;20336;-65
2023/04/30 02:03:56;;;;;;;7.30;5.00;;;;;;;9.94;100.00;98902.63;4942713;28;20238;-65
2023/04/30 02:06:26;;;;;;;10.77;5.43;;;;;;;9.94;100.00;98897.41;4924499;28;20814;-65
2023/04/30 02:08:53;;;;;;;8.33;5.00;;;;;;;10.04;100.00;98903.44;4927819;28;20390;-65
2023/04/30 02:11:20;;;;;;;9.60;5.50;;;;;;;10.05;100.00;98897.25;4938131;28;20287;-65
2023/04/30 02:13:48;;;;;;;8.50;5.03;;;;;;;9.96;100.00;98892.88;4925408;28;20259;-66
2023/04/30 02:16:15;;;;;;;8.10;5.10;;;;;;;9.84;100.00;98898.25;4885788;28;20264;-66
2023/04/30 02:18:43;;;;;;;6.07;4.70;;;;;;;9.63;100.00;98895.81;4916383;28;20322;-66
2023/04/30 02:21:10;;;;;;;5.93;4.63;;;;;;;9.45;100.00;98903.50;4922111;28;20707;-66
2023/04/30 02:23:36;;;;;;;6.53;4.10;;;;;;;9.26;100.00;98905.13;4927690;28;20238;-66
2023/04/30 02:26:03;;;;;;;5.70;4.27;;;;;;;9.08;100.00;98904.13;4925934;28;20235;-66
2023/04/30 02:28:29;;;;;;;5.40;3.83;;;;;;;8.90;100.00;98899.56;4856673;28;20245;-66
2023/04/30 02:30:58;;;;;;;7.03;4.50;;;;;;;8.81;100.00;98902.97;4921304;28;21207;-65
2023/04/30 02:33:25;;;;;;;6.37;3.70;;;;;;;8.64;100.00;98894.81;4941307;28;20478;-65
2023/04/30 02:35:53;;;;;;;4.60;3.50;;;;;;;8.53;100.00;98894.91;4948075;28;20233;-65
2023/04/30 02:38:20;;;;;;;4.97;3.73;;;;;;;8.45;100.00;98894.75;4944792;28;20239;-65
2023/04/30 02:40:47;;;;;;;4.80;3.50;;;;;;;8.37;100.00;98892.78;4950036;28;20268;-65
2023/04/30 02:43:13;;;;;;;8.87;4.23;;;;;;;8.27;100.00;98890.16;4945063;28;20243;-65
2023/04/30 02:45:40;;;;;;;6.00;3.87;;;;;;;8.24;100.00;98898.22;4948648;28;20236;-65
2023/04/30 02:48:08;;;;;;;8.23;4.43;;;;;;;8.21;100.00;98896.66;4945439;28;20241;-65
2023/04/30 02:50:34;;;;;;;8.70;4.30;;;;;;;8.16;100.00;98895.44;4951500;28;20237;-65
2023/04/30 02:53:01;;;;;;;6.03;3.53;;;;;;;8.10;100.00;98894.97;4949144;28;20245;-65
2023/04/30 02:55:27;;;;;;;6.17;3.67;;;;;;;8.05;100.00;98886.75;4937617;28;20235;-65
2023/04/30 02:57:55;;;;;;;7.33;3.63;;;;;;;8.14;100.00;98887.75;4929914;28;20240;-65
2023/04/30 03:00:21;;;;;;;4.93;3.87;;;;;;;8.09;100.00;98895.09;4944782;28;20652;-65
2023/04/30 03:02:48;;;;;;;7.73;4.50;;;;;;;8.02;100.00;98881.81;4933536;28;20230;-65
2023/04/30 03:05:16;;;;;;;7.83;4.50;;;;;;;8.00;100.00;98881.09;4930196;28;20228;-65
2023/04/30 03:07:43;;;;;;;6.47;4.00;;;;;;;7.95;100.00;98871.06;4927447;28;20253;-65
2023/04/30 03:10:10;;;;;;;6.87;3.93;;;;;;;7.88;100.00;98872.56;4929129;28;20231;-65
2023/04/30 03:12:36;;;;;;;7.07;3.90;;;;;;;7.87;100.00;98870.06;4949750;28;20305;-65
2023/04/30 03:15:04;;;;;;;6.07;3.63;;;;;;;7.86;100.00;98874.47;4947521;28;20240;-65
2023/04/30 03:17:30;;;;;;;5.77;4.50;;;;;;;7.83;100.00;98874.72;4945377;28;20272;-65
2023/04/30 03:19:57;;;;;;;7.07;4.10;;;;;;;7.93;100.00;98875.59;4964471;28;20235;-65
2023/04/30 03:22:26;;;;;;;5.73;3.90;;;;;;;7.92;100.00;98878.31;4943646;28;20225;-65
2023/04/30 03:24:53;;;;;;;6.20;4.00;;;;;;;7.93;100.00;98872.16;4940910;28;20238;-65
2023/04/30 03:27:25;;;;;;;7.97;4.10;;;;;;;8.04;100.00;98874.69;4922789;28;20228;-65
2023/04/30 03:29:51;;;;;;;6.53;4.23;;;;;;;8.07;100.00;98868.41;4947319;28;20251;-65
2023/04/30 03:32:25;;;;;;;5.37;4.03;;;;;;;8.08;100.00;98870.06;5153941;23;20372;-65
2023/04/30 03:34:51;;;;;;;5.00;3.57;;;;;;;8.12;100.00;98869.69;4919881;29;20243;-65
2023/04/30 03:37:44;;;;;;;6.53;3.97;;;;;;;8.17;100.00;98865.88;4938151;28;20234;-65
2023/04/30 03:40:11;;;;;;;6.83;4.40;;;;;;;8.21;100.00;98868.06;4935136;28;20242;-66
2023/04/30 03:42:38;;;;;;;5.57;3.90;;;;;;;8.30;100.00;98868.25;4911699;29;20321;-66
2023/04/30 03:45:05;;;;;;;7.20;3.80;;;;;;;8.33;100.00;98860.19;4902381;29;20230;-66
2023/04/30 03:47:34;;;;;;;6.50;3.90;;;;;;;8.35;100.00;98869.53;4922206;29;20389;-66
2023/04/30 03:50:00;;;;;;;7.63;3.83;;;;;;;8.38;100.00;98868.41;4908764;29;20234;-66
2023/04/30 03:52:27;;;;;;;4.97;3.20;;;;;;;8.38;100.00;98855.41;4895076;29;20302;-66
2023/04/30 03:54:55;;;;;;;4.23;3.37;;;;;;;8.37;100.00;98858.97;4904052;29;20724;-66
2023/04/30 03:57:25;;;;;;;5.63;3.53;;;;;;;8.39;100.00;98854.47;4905888;29;20296;-66
2023/04/30 03:59:52;;;;;;;5.80;3.80;;;;;;;8.40;100.00;98866.50;4908481;29;20622;-66
2023/04/30 04:02:25;;;;;;;5.90;3.90;;;;;;;8.43;100.00;98871.44;4908639;29;20256;-66
2023/04/30 04:04:52;;;;;;;6.60;4.20;;;;;;;8.46;100.00;98871.19;4899806;29;20236;-66
2023/04/30 04:07:25;;;;;;;6.00;4.10;;;;;;;8.48;100.00;98874.47;4901030;29;20242;-66
2023/04/30 04:09:51;;;;;;;6.57;4.20;;;;;;;8.46;100.00;98871.19;4913529;29;20233;-66
2023/04/30 04:12:44;;;;;;;7.07;4.23;;;;;;;8.47;100.00;98872.84;4925583;29;20259;-65
2023/04/30 04:15:10;;;;;;;9.07;4.93;;;;;;;8.52;100.00;98875.06;4884543;29;20233;-65
2023/04/30 04:17:37;;;;;;;7.83;4.67;;;;;;;8.54;100.00;98878.34;4898079;29;20693;-65
2023/04/30 04:20:06;;;;;;;7.13;4.60;;;;;;;8.56;100.00;98873.84;4918860;29;20268;-65
2023/04/30 04:22:34;;;;;;;9.93;4.73;;;;;;;8.66;100.00;98877.31;4910321;29;20268;-65
2023/04/30 04:25:01;;;;;;;7.90;4.80;;;;;;;8.68;100.00;98878.00;4927995;29;20240;-65
2023/04/30 04:27:28;;;;;;;7.60;4.50;;;;;;;8.62;100.00;98878.53;4906536;29;20387;-65
2023/04/30 04:29:56;;;;;;;8.60;4.60;;;;;;;8.57;100.00;98878.09;4912667;29;20671;-65
2023/04/30 04:32:26;;;;;;;7.40;4.50;;;;;;;8.56;100.00;98886.84;4906456;29;20241;-65
2023/04/30 04:34:54;;;;;;;8.37;4.63;;;;;;;8.52;100.00;98886.31;4924694;29;20326;-66
2023/04/30 04:37:25;;;;;;;6.30;3.60;;;;;;;8.54;100.00;98894.81;4908262;29;20289;-66
2023/04/30 04:39:51;;;;;;;7.23;4.33;;;;;;;8.48;100.00;98895.28;4910689;29;20264;-66
2023/04/30 04:42:42;;;;;;;46.57;25.00;;;;;;;8.53;100.00;98893.16;4925426;29;20582;-66
2023/04/30 04:45:11;;;;;;;33.20;18.23;;;;;;;8.54;100.00;98887.00;4925035;29;20604;-66
2023/04/30 04:47:38;;;;;;;35.77;21.23;;;;;;;8.61;100.00;98886.47;4912432;29;20263;-66
2023/04/30 04:50:06;;;;;;;20.43;14.13;;;;;;;8.62;100.00;98890.72;4901156;29;20271;-65
2023/04/30 04:52:33;;;;;;;13.17;8.57;;;;;;;8.61;100.00;98889.88;4921336;29;20316;-65
2023/04/30 04:54:59;;;;;;;12.07;7.90;;;;;;;8.63;100.00;98887.16;4903054;29;20232;-65
2023/04/30 04:57:26;;;;;;;13.60;10.23;;;;;;;8.65;100.00;98899.06;4902099;29;20253;-65
2023/04/30 04:59:53;;;;;;;10.20;7.23;;;;;;;8.74;100.00;98892.28;4910250;29;20269;-65
2023/04/30 05:02:27;;;;;;;20.63;17.43;;;;;;;8.80;100.00;98893.50;4924954;29;20331;-65
2023/04/30 05:04:53;;;;;;;11.30;5.90;;;;;;;8.86;100.00;98892.97;4927366;29;20245;-65
2023/04/30 05:07:25;;;;;;;10.50;7.73;;;;;;;8.93;100.00;98894.09;4892541;29;20285;-65
2023/04/30 05:09:52;;;;;;;9.70;7.30;;;;;;;8.97;100.00;98905.88;4897211;29;20271;-65
2023/04/30 05:12:25;;;;;;;11.83;7.10;;;;;;;9.18;98.60;98902.38;4894700;29;20649;-65
2023/04/30 05:14:51;;;;;;;10.03;6.60;;;;;;;9.43;96.30;98903.63;4908527;29;20231;-65
2023/04/30 05:17:44;;;;;;;11.37;7.47;;;;;;;9.49;96.91;98899.66;4925093;29;20599;-65
2023/04/30 05:20:12;;;;;;;12.03;7.60;;;;;;;9.56;94.73;98903.34;4916572;29;20245;-65
2023/04/30 05:22:39;;;;;;;10.57;5.70;;;;;;;9.55;96.61;98908.69;4927179;29;20601;-65
2023/04/30 05:25:06;;;;;;;9.10;6.83;;;;;;;9.56;96.35;98913.75;4926721;29;20290;-65
2023/04/30 05:27:33;;;;;;;10.37;6.63;;;;;;;9.59;94.76;98904.84;4913355;29;20570;-65
2023/04/30 05:30:00;;;;;;;10.77;7.13;;;;;;;9.63;93.95;98913.22;4891349;29;20637;-65
2023/04/30 05:32:27;;;;;;;12.57;7.20;;;;;;;9.64;94.86;98914.84;4908162;29;20761;-65
2023/04/30 05:34:55;;;;;;;10.67;7.27;;;;;;;9.70;93.66;98909.09;4914578;29;20696;-65
2023/04/30 05:37:25;;;;;;;9.80;6.17;;;;;;;9.75;92.84;98912.13;4914956;28;20339;-65
2023/04/30 05:39:52;;;;;;;12.63;6.30;;;;;;;9.74;94.98;98905.25;4920026;29;20267;-65
2023/04/30 05:42:44;;;;;;;7.80;6.30;;;;;;;9.80;92.58;98920.34;4919793;29;20246;-65
2023/04/30 05:45:15;;;;;;;12.23;7.43;;;;;;;9.95;89.04;98917.31;4913126;29;20245;-65
2023/04/30 05:47:42;;;;;;;10.07;6.17;;;;;;;10.02;89.22;98924.44;4914810;29;20625;-65
2023/04/30 05:50:11;;;;;;;10.17;6.00;;;;;;;10.13;88.93;98914.78;4905539;29;20228;-65
2023/04/30 05:52:38;;;;;;;7.80;5.40;;;;;;;10.21;88.15;98916.72;4919467;29;20329;-65
2023/04/30 05:55:05;;;;;;;8.30;5.83;;;;;;;10.29;87.28;98925.47;4926772;29;20275;-65
2023/04/30 05:57:32;;;;;;;5.70;4.77;;;;;;;10.21;91.77;98920.13;4922272;29;20232;-65
2023/04/30 05:59:58;;;;;;;7.07;5.23;;;;;;;10.19;91.62;98922.06;4926645;29;20598;-65
2023/04/30 06:02:25;;;;;;;8.60;5.67;;;;;;;10.28;87.89;98917.81;4924294;29;20234;-65
2023/04/30 06:04:52;;;;;;;8.33;5.67;;;;;;;10.28;89.86;98918.59;4926386;29;20237;-66
2023/04/30 06:07:26;;;;;;;9.97;5.77;;;;;;;10.33;89.41;98919.00;4922346;29;20236;-66
2023/04/30 06:09:53;;;;;;;7.73;5.53;;;;;;;10.37;87.08;98919.56;4927115;29;20297;-66
2023/04/30 06:12:25;;;;;;;8.87;5.63;;;;;;;10.32;90.33;98917.34;4923870;29;20240;-66
2023/04/30 06:14:52;;;;;;;7.87;4.73;;;;;;;10.37;90.58;98922.16;4926827;29;20728;-66
2023/04/30 06:17:25;;;;;;;8.20;5.33;;;;;;;10.39;91.85;98916.78;4904971;29;20243;-66
2023/04/30 06:19:51;;;;;;;7.73;4.83;;;;;;;10.41;90.79;98917.50;4926537;29;20237;-66
2023/04/30 06:22:44;;;;;;;8.00;5.57;;;;;;;10.48;91.85;98914.19;4925928;29;20712;-66
2023/04/30 06:25:11;;;;;;;7.33;4.83;;;;;;;10.60;90.39;98916.63;4927334;29;20241;-66
2023/04/30 06:27:37;;;;;;;8.57;5.50;;;;;;;10.62;92.64;98914.66;4930174;29;20283;-66
2023/04/30 06:30:05;;;;;;;9.30;5.97;;;;;;;11.06;80.96;98912.25;4922467;29;20269;-66
2023/04/30 06:32:32;;;;;;;8.97;5.63;;;;;;;11.27;80.56;98913.78;4914998;29;20241;-66
2023/04/30 06:34:58;;;;;;;8.07;5.53;;;;;;;11.47;80.85;98911.03;4910802;29;20239;-66
2023/04/30 06:37:25;;;;;;;10.43;5.07;;;;;;;11.57;84.04;98911.78;4907512;29;20713;-66
2023/04/30 06:39:53;;;;;;;10.57;5.77;;;;;;;11.75;78.62;98922.22;4910970;29;20229;-66
2023/04/30 06:42:25;;;;;;;8.63;5.90;;;;;;;11.88;76.80;98918.38;4908052;29;20234;-66
2023/04/30 06:44:52;;;;;;;7.57;5.70;;;;;;;11.95;75.70;98915.00;4909832;29;20567;-66
2023/04/30 06:47:25;;;;;;;7.83;4.90;;;;;;;12.10;76.19;98911.84;4908282;29;20262;-66
2023/04/30 06:49:51;;;;;;;8.23;5.20;;;;;;;12.21;77.98;98916.84;4910745;29;20243;-66
2023/04/30 06:52:22;;;;;;;7.07;5.70;;;;;;;12.27;74.61;98922.44;4907707;29;20261;-66
2023/04/30 06:54:49;;;;;;;7.47;5.63;;;;;;;12.28;72.07;98924.06;4910902;29;20235;-66
2023/04/30 06:57:16;;;;;;;9.80;6.13;;;;;;;12.38;71.77;98917.75;4907386;29;20557;-66
2023/04/30 06:59:43;;;;;;;7.53;4.63;;;;;;;12.36;79.34;98917.06;4910503;29;20286;-66
2023/04/30 07:02:10;;;;;;;10.00;6.28;;;;;;;12.49;77.67;98921.91;4915573;28;20433;-66
2023/04/30 07:04:37;;;;;;;7.23;5.40;;;;;;;12.55;75.29;98918.66;4929309;29;20279;-66
2023/04/30 07:07:03;;;;;;;6.10;4.87;;;;;;;12.63;71.15;98923.09;4929706;29;20230;-66
2023/04/30 07:09:30;;;;;;;7.83;5.50;;;;;;;12.74;71.35;98921.19;4926979;29;20375;-66
2023/04/30 07:11:57;;;;;;;7.67;4.80;;;;;;;12.88;70.43;98922.38;4905364;29;20234;-66
2023/04/30 07:14:25;;;;;;;7.80;5.33;;;;;;;13.04;70.16;98908.53;4926647;29;20251;-66
2023/04/30 07:16:52;;;;;;;7.17;5.30;;;;;;;13.21;69.91;98914.63;4929860;29;20239;-66
2023/04/30 07:19:19;;;;;;;8.33;4.80;;;;;;;13.16;67.52;98916.91;4926905;29;20241;-66
2023/04/30 07:21:45;;;;;;;6.33;4.93;;;;;;;13.35;67.97;98921.84;4929919;29;20242;-66
2023/04/30 07:24:12;;;;;;;6.17;4.53;;;;;;;13.35;68.05;98921.84;4926373;29;20223;-66
2023/04/30 07:26:39;;;;;;;7.67;5.00;;;;;;;13.18;66.46;98920.19;4928124;29;20303;-66
2023/04/30 07:29:05;;;;;;;6.80;5.00;;;;;;;13.29;66.44;98920.69;4928813;29;20957;-66
2023/04/30 07:31:33;;;;;;;6.10;4.37;;;;;;;13.35;65.68;98916.63;4909757;29;20238;-66
2023/04/30 07:34:00;;;;;;;6.50;4.73;;;;;;;13.45;68.23;98915.69;4900002;29;20234;-66
2023/04/30 07:36:27;;;;;;;5.13;4.10;;;;;;;13.66;64.58;98916.03;4926372;29;20333;-66
2023/04/30 07:38:53;;;;;;;8.23;4.40;;;;;;;13.60;63.71;98914.06;4929070;29;20318;-66
2023/04/30 07:41:20;;;;;;;6.03;4.70;;;;;;;13.78;65.10;98918.31;4925790;29;20628;-66
2023/04/30 07:43:47;;;;;;;5.97;4.30;;;;;;;13.94;63.12;98913.03;4928856;29;20254;-66
2023/04/30 07:46:13;;;;;;;6.63;4.00;;;;;;;13.95;62.18;98919.94;4926383;29;20231;-66
2023/04/30 07:48:41;;;;;;;5.47;3.77;;;;;;;13.97;61.16;98914.53;4929277;29;20788;-66
2023/04/30 07:51:08;;;;;;;8.63;4.43;;;;;;;14.24;59.67;98905.47;4926149;29;20247;-66
2023/04/30 07:53:34;;;;;;;6.80;3.80;;;;;;;14.44;59.33;98913.78;4927444;29;20227;-66
2023/04/30 07:56:01;;;;;;;5.37;3.43;;;;;;;14.42;59.31;98917.56;4928848;29;20639;-66
2023/04/30 07:58:28;;;;;;;4.20;3.67;;;;;;;14.55;57.42;98922.28;4926162;29;20299;-66
2023/04/30 08:00:54;;;;;;;4.97;3.37;;;;;;;14.94;57.85;98931.19;4928079;29;20679;-66
2023/04/30 08:03:21;;;;;;;6.00;3.83;;;;;;;14.84;53.41;98924.31;4925433;29;20231;-66
2023/04/30 08:05:49;;;;;;;4.23;3.20;;;;;;;14.96;54.62;98922.16;4928659;29;20295;-66
2023/04/30 08:08:16;;;;;;;3.80;3.00;;;;;;;14.94;55.61;98920.66;4925791;29;20231;-66
2023/04/30 08:10:42;;;;;;;4.80;3.43;;;;;;;14.86;54.61;98932.84;4923875;29;20721;-66
2023/04/30 08:13:09;;;;;;;3.73;2.97;;;;;;;15.15;56.33;98934.03;4907068;29;20245;-66
2023/04/30 08:15:36;;;;;;;3.07;2.67;;;;;;;15.34;55.08;98926.69;4907794;29;20266;-66
2023/04/30 08:18:04;;;;;;;3.20;2.60;;;;;;;15.49;53.70;98924.13;4909707;29;20232;-66
2023/04/30 08:20:30;;;;;;;3.80;2.77;;;;;;;15.40;55.47;98935.69;4906946;29;20724;-66
2023/04/30 08:22:58;;;;;;;3.17;2.70;;;;;;;15.25;55.44;98920.69;4909263;29;20578;-66
2023/04/30 08:25:25;;;;;;;3.80;2.73;;;;;;;15.57;54.44;98926.69;4906132;29;20247;-66
2023/04/30 08:27:52;;;;;;;3.43;2.40;;;;;;;15.83;54.21;98929.97;4908487;29;20259;-66
2023/04/30 08:30:18;;;;;;;2.57;2.30;;;;;;;16.04;52.08;98926.69;4906538;29;20226;-66
2023/04/30 08:32:45;;;;;;;4.23;3.40;;;;;;;16.12;51.41;98929.25;4909238;29;20243;-66
2023/04/30 08:35:12;;;;;;;4.10;2.63;;;;;;;16.23;49.16;98923.53;4905717;29;20244;-66
2023/04/30 08:37:41;;;;;;;3.60;2.60;;;;;;;15.79;49.36;98930.31;4909476;29;20218;-66
2023/04/30 08:40:10;;;;;;;3.93;2.40;;;;;;;15.95;48.86;98920.66;4905695;29;20240;-66
2023/04/30 08:42:44;;;;;;;4.20;2.27;;;;;;;15.79;50.04;98929.50;4909129;29;20319;-66
2023/04/30 08:45:13;;;;;;;2.70;1.90;;;;;;;16.03;48.99;98925.84;4906243;29;20629;-66
2023/04/30 08:47:40;;;;;;;4.47;2.17;;;;;;;15.32;49.83;98937.41;4908399;29;20253;-66
2023/04/30 08:50:08;;;;;;;2.37;2.13;;;;;;;15.63;50.77;98931.25;4906299;29;20640;-66
2023/04/30 08:52:36;;;;;;;2.83;2.17;;;;;;;15.86;49.65;98935.69;4908934;29;20244;-66
2023/04/30 08:55:07;;;;;;;2.17;1.97;;;;;;;15.79;52.43;98930.31;4908551;29;20717;-66
2023/04/30 08:57:36;;;;;;;2.57;2.13;;;;;;;16.08;54.14;98934.03;4924817;29;20231;-66
2023/04/30 09:00:02;;;;;;;3.37;2.43;;;;;;;16.19;50.44;98932.78;4927889;29;20232;-66
2023/04/30 09:02:31;;;;;;;4.63;2.10;;;;;;;16.70;50.91;98935.72;4924921;29;20253;-66
2023/04/30 09:04:58;;;;;;;2.40;2.10;;;;;;;17.29;51.31;98936.63;4927104;29;20244;-66
2023/04/30 09:07:27;;;;;;;3.87;2.37;;;;;;;17.84;46.27;98936.94;4924615;29;20237;-66
2023/04/30 09:09:54;;;;;;;2.20;2.00;;;;;;;17.66;47.74;98945.31;4927762;29;20241;-66
2023/04/30 09:12:25;;;;;;;2.50;1.90;;;;;;;17.63;46.42;98948.34;4924142;29;20324;-66
2023/04/30 09:15:00;;;;;;;2.73;2.20;;;;;;;17.96;45.45;98953.91;4913085;29;20235;-66
2023/04/30 09:17:27;;;;;;;2.97;2.47;;;;;;;17.74;45.38;98944.34;4906424;29;20242;-66
2023/04/30 09:19:53;;;;;;;3.00;2.47;;;;;;;17.44;45.41;98947.94;4923733;29;20223;-66
2023/04/30 09:22:25;;;;;;;5.10;3.47;;;;;;;16.55;48.36;98939.16;4923093;29;20238;-66
2023/04/30 09:24:52;;;;;;;3.10;2.60;;;;;;;16.43;47.62;98943.25;4927173;29;20232;-66
2023/04/30 09:27:45;;;;;;;2.90;2.27;;;;;;;16.63;48.53;98947.00;4924691;29;20287;-66
2023/04/30 09:30:30;;;;;;;4.32;2.40;;;;;;;17.46;47.35;98958.34;4899994;29;20447;-66
2023/04/30 09:32:57;;;;;;;3.80;2.43;;;;;;;17.25;46.92;98944.91;4906555;29;20338;-66
2023/04/30 09:35:30;;;;;;;2.90;2.23;;;;;;;17.59;45.25;98947.06;4904805;29;20666;-66
2023/04/30 09:37:56;;;;;;;2.17;1.73;;;;;;;17.72;45.41;98944.56;4922992;29;20222;-66
2023/04/30 09:40:33;;;;;;;3.17;2.20;;;;;;;17.26;46.07;98938.63;4905564;29;20238;-66
2023/04/30 09:43:00;;;;;;;4.60;2.80;;;;;;;17.08;48.45;98939.06;4907839;29;20239;-66
2023/04/30 09:45:39;;;;;;;2.87;2.40;;;;;;;17.17;46.36;98949.50;4905667;29;21247;-66
2023/04/30 09:48:08;;;;;;;3.00;2.30;;;;;;;17.45;45.88;98943.50;4907280;29;20242;-66
2023/04/30 09:50:38;;;;;;;3.80;2.57;;;;;;;17.55;46.45;98942.19;4923931;29;20699;-66
2023/04/30 09:53:08;;;;;;;5.03;2.77;;;;;;;17.06;47.36;98948.13;4919390;29;20328;-66
2023/04/30 09:55:36;;;;;;;6.23;2.50;;;;;;;17.58;47.27;98948.09;4896710;29;20329;-66
2023/04/30 09:58:06;;;;;;;4.10;2.60;;;;;;;17.60;48.79;98948.72;4910159;29;20243;-66
2023/04/30 10:00:35;;;;;;;3.10;2.60;;;;;;;17.43;49.30;98948.94;4927788;29;20230;-66
2023/04/30 10:03:05;;;;;;;3.93;2.67;;;;;;;17.74;47.39;98945.19;4930331;29;20234;-66
2023/04/30 10:05:36;;;;;;;4.23;2.73;;;;;;;17.73;48.26;98940.91;4916712;29;20697;-66
2023/04/30 10:08:03;;;;;;;2.93;2.40;;;;;;;18.25;49.48;98941.56;4915904;29;20235;-66
2023/04/30 10:10:31;;;;;;;4.10;2.63;;;;;;;18.34;44.13;98934.28;4909314;29;20680;-66
2023/04/30 10:13:04;;;;;;;2.67;2.07;;;;;;;18.41;43.63;98942.25;4910485;29;20255;-66
2023/04/30 10:15:35;;;;;;;3.17;2.80;;;;;;;18.11;46.14;98919.50;4908405;29;20251;-66
2023/04/30 10:18:06;;;;;;;4.70;2.17;;;;;;;17.36;48.32;98937.50;4911509;29;20702;-66
2023/04/30 10:20:36;;;;;;;3.00;2.57;;;;;;;17.56;45.74;98933.25;4909409;29;20245;-66
2023/04/30 10:23:03;;;;;;;3.33;2.30;;;;;;;17.51;46.50;98929.53;4911365;29;20325;-66
2023/04/30 10:25:30;;;;;;;4.23;2.90;;;;;;;17.63;46.73;98927.22;4908269;29;20243;-66
2023/04/30 10:27:57;;;;;;;5.43;3.20;;;;;;;16.68;47.59;98920.06;4911130;29;20233;-66
2023/04/30 10:30:24;;;;;;;3.60;2.30;;;;;;;17.19;47.31;98921.09;4908400;29;20291;-66
2023/04/30 10:33:01;;;;;;;5.23;2.90;;;;;;;17.58;46.03;98905.84;4910854;29;20319;-66
2023/04/30 10:35:33;;;;;;;4.37;2.63;;;;;;;17.18;44.59;98908.91;4908503;29;20248;-66
2023/04/30 10:38:10;;;;;;;2.77;2.10;;;;;;;17.89;44.68;98904.69;4912983;29;20226;-65
2023/04/30 10:40:37;;;;;;;3.10;2.80;;;;;;;17.46;45.23;98903.72;4926798;29;20241;-66
2023/04/30 10:43:04;;;;;;;3.60;2.70;;;;;;;16.88;47.46;98903.69;4928748;29;20723;-66
2023/04/30 10:45:38;;;;;;;3.93;2.50;;;;;;;16.95;47.03;98902.78;4924296;29;20255;-66
2023/04/30 10:48:06;;;;;;;4.00;2.20;;;;;;;16.75;47.68;98907.78;4928726;29;20245;-66
2023/04/30 10:50:40;;;;;;;4.27;2.73;;;;;;;17.01;48.99;98900.41;4919022;29;20764;-66
2023/04/30 10:53:07;;;;;;;2.97;2.40;;;;;;;17.77;47.44;98902.56;4926783;29;20246;-65
2023/04/30 10:55:38;;;;;;;2.80;2.60;;;;;;;17.91;45.68;98900.84;4921245;28;20257;-65
2023/04/30 10:58:24;;;;;;;3.63;2.47;;;;;;;17.07;48.23;98895.22;4927141;29;20248;-65
2023/04/30 11:00:59;;;;;;;4.37;3.03;;;;;;;16.43;48.21;98901.09;4916469;29;20262;-65
2023/04/30 11:03:29;;;;;;;4.27;2.60;;;;;;;16.96;48.51;98883.31;4925531;29;20229;-65
2023/04/30 11:05:57;;;;;;;3.03;2.50;;;;;;;17.55;47.08;98884.09;4914478;29;20241;-65
2023/04/30 11:08:34;;;;;;;3.27;2.47;;;;;;;17.63;48.10;98887.63;4907295;29;20235;-65
2023/04/30 11:11:01;;;;;;;2.90;2.40;;;;;;;17.89;44.67;98876.44;4910001;29;20322;-65
2023/04/30 11:13:28;;;;;;;3.80;2.80;;;;;;;17.82;45.58;98876.41;4906811;29;20246;-65
2023/04/30 11:16:03;;;;;;;3.23;2.40;;;;;;;18.17;44.27;98880.09;4910015;29;20236;-66
2023/04/30 11:18:30;;;;;;;5.73;2.70;;;;;;;18.00;44.20;98877.78;4907554;29;20287;-65
2023/04/30 11:20:58;;;;;;;2.73;2.40;;;;;;;17.24;46.07;98885.25;4910549;29;20239;-66
2023/04/30 11:23:26;;;;;;;5.33;2.40;;;;;;;17.31;45.88;98871.28;4907508;29;20244;-67
2023/04/30 11:25:55;;;;;;;4.93;2.70;;;;;;;17.53;45.68;98880.84;4901365;29;20329;-67
2023/04/30 11:28:24;;;;;;;5.53;2.90;;;;;;;18.02;46.04;98882.88;4906477;29;20224;-66
2023/04/30 11:30:52;;;;;;;5.40;2.50;;;;;;;18.94;47.15;98880.03;4909980;29;20239;-66
2023/04/30 11:33:20;;;;;;;3.00;2.57;;;;;;;19.19;46.39;98869.75;4907181;29;20235;-66
2023/04/30 11:35:48;;;;;;;2.30;2.07;;;;;;;19.45;42.79;98881.38;4910215;29;20247;-64
2023/04/30 11:38:18;;;;;;;2.30;2.10;;;;;;;19.38;42.61;98869.97;4906696;29;20276;-65
2023/04/30 11:40:45;;;;;;;2.40;2.20;;;;;;;19.56;44.07;98875.50;4908499;29;20252;-65